AirNav   Pilot Hours Calculator
 
 1529 users online  

32CL Bob's Flying Service Inc Airport
Knights Landing, California, USA

GOING TO KNIGHTS LANDING?


FAA INFORMATION EFFECTIVE 05 DECEMBER 2019

Location

FAA Identifier: 32CL
Lat/Long: 38-49-59.6400N 121-43-03.8720W
38-49.994000N 121-43.064533W
38.8332333,-121.7177422
(estimated)
Elevation: 40 ft. / 12 m (estimated)
Variation: 16E (1985)
From city: 2 miles N of KNIGHTS LANDING, CA
Time zone: UTC -8 (UTC -7 during Daylight Saving Time)
Zip code: 95645

Airport Operations

Airport use: Private use. Permission required prior to landing
Activation date: 01/1972
Control tower: no
ARTCC: OAKLAND CENTER
FSS: RANCHO MURIETA FLIGHT SERVICE STATION
Attendance: MON-SAT 0800-1700
Wind indicator: yes
Segmented circle: no

Airport Communications

WX ASOS at SMF (10 nm SE): PHONE 916-649-3996
WX AWOS-3 at DWA (17 nm SW): 125.775 (530-750-2759)
WX ASOS at MYV (17 nm NE): 118.475 (530-742-0695)
WX AWOS-3 at LHM (18 nm E): 124.25 (916-645-0698)
WX AWOS-3 at MCC (18 nm SE): 125.975 (916-641-1272)
WX AWOS-3 at EDU (18 nm S): 119.025 (530-754-6839)

Nearby radio navigation aids

VOR radial/distance  VOR name  Freq  Var
MYVr187/17.3MARYSVILLE VOR/DME110.8016E
MCCr287/17.7MC CLELLAN VOR/DME109.2017E
ILAr117/20.3WILLIAMS VORTAC114.4018E
SACr325/24.6SACRAMENTO VORTAC115.2017E

Airport Services

Fuel available: 100 JET-A
Airframe service: NONE
Powerplant service: NONE

Runway Information

Runway N/S

Dimensions: 2500 x 50 ft. / 762 x 15 m
Surface: gravel/treated
RUNWAY N  RUNWAY S
Traffic pattern: leftleft
Obstructions: 100 ft. tower, lighted3 ft. fence

Airport Ownership and Management from official FAA records

Ownership: Privately-owned
Owner: BOB STICKEL
STAR ROUTE, BOX 446
KNIGHTS LANDING, CA 95645
Phone 916-735-6201
Manager: BOB STICKEL
STAR ROUTE, BOX 446
KNIGHTS LANDING, CA 95645
Phone 916-735-6201

Airport Operational Statistics

Aircraft based on the field: 5
Single engine airplanes: 4
Multi engine airplanes: 1
    

Additional Remarks

FOR CD CTC NORCAL APCH AT 916-361-6874.

Instrument Procedures

There are no published instrument procedures at 32CL.

Some nearby airports with instrument procedures:

KSMF - Sacramento International Airport (10 nm SE)
O41 - Watts-Woodland Airport (12 nm SW)
KDWA - Yolo County Airport (17 nm SW)
KMYV - Yuba County Airport (17 nm NE)
KLHM - Lincoln Regional Airport/Karl Harder Field (18 nm E)
KMCC - Mc Clellan Airfield (18 nm SE)
KEDU - University Airport (18 nm S)
 
Loc | Ops | Rwys | IFR | FBO | Links
Com | Nav | Svcs | Stats | Notes

Sonoma Jet Center
 
Area around 32CL (Bob's Flying Service Inc Airport)
 
Road maps at: MapQuest Bing Google
 
Aerial photo
No photo
 
Sectional chart

 
Airport distance calculator
Flying to Bob's Flying Service Inc Airport? Find the distance to fly.

From to 32CL

Sunrise and sunset
Times for 05-Dec-2019
 Local
(UTC-8)
 Zulu
(UTC)
Morning civil twilight06:4214:42
Sunrise07:1115:11
Sunset16:4400:44
Evening civil twilight17:1401:14

Current date and time
Zulu (UTC)  05-Dec-2019 15:33:03
Local (UTC-8)  05-Dec-2019 07:33:03
 
METAR
KSMF 
10nm SE 
051453Z 33003KT 4SM BR OVC024 11/11 A3006 RMK AO2 SLP178 T01110111 53009
KMYV 
17nm NE 
051512Z AUTO 01003KT 4SM BR SCT029 BKN075 11/09 A3008 RMK AO2 T01060094
KLHM 
18nm E 
051515Z AUTO 06004KT 10SM CLR 06/06 A3007 RMK AO1
KMCC 
18nm SE 
051515Z AUTO 00000KT 2SM BR CLR 09/09 A3009 RMK AO2 VIS 1V5
KEDU 
18nm S 
051515Z AUTO 02003KT 3SM OVC015 12/12 A3008 RMK AO1
TAF
KSMF 
10nm SE 
051415Z 0514/0612 32003KT P6SM OVC020 TEMPO 0514/0518 1 1/2SM BR OVC004 FM051800 12004KT 6SM BR FEW005 OVC010 FM052100 15004KT P6SM OVC025 FM060100 VRB03KT P6SM OVC050
KMCC 
18nm SE 
051415Z 0514/0612 00000KT 3SM BR OVC025 TEMPO 0514/0518 1 1/2SM BR OVC004 FM051800 11003KT 6SM BR OVC015 FM052100 11004KT P6SM OVC025 FM060000 02003KT P6SM OVC050
NOTAMs
Click for the latest NOTAMs
NOTAMs are issued by the DoD/FAA and will open in a separate window not controlled by AirNav.

 

 
 

Would you like to see your business listed on this page?

 If your business provides an interesting product or service to pilots, flight crews, aircraft, or users of the Bob's Flying Service Inc Airport, you should consider listing it here.  To start the listing process, click on the button below
 
Add a business
 

Other Pages about Bob's Flying Service Inc Airport

Update a link
 
Copyright © AirNav, LLC. All rights reserved. Privacy Policy  Contact